Time;durP1;ratioP1;P1;durP2;ratioP2;P2;SDS_P1;SDS_P2;PMS_P1;PMS_P2;Temp;Humidity;BMP_temperature;BMP_pressure;BME280_temperature;BME280_humidity;BME280_pressure;Samples;Min_cycle;Max_cycle;Signal;HPM_P1;HPM_P2
2022/08/25 00:01:24;;;;;;;9.50;3.65;;;21.90;99.90;;;;;;5065052;28;20206;-69
2022/08/25 00:03:57;;;;;;;3.00;2.40;;;21.80;99.90;;;;;;5068424;28;20233;-69
2022/08/25 00:06:25;;;;;;;2.90;2.60;;;21.80;99.90;;;;;;5049960;28;20245;-69
2022/08/25 00:08:51;;;;;;;3.08;2.58;;;21.80;99.90;;;;;;5068651;28;20219;-69
2022/08/25 00:11:22;;;;;;;7.18;3.10;;;21.60;99.90;;;;;;5068548;28;20379;-68
2022/08/25 00:13:53;;;;;;;3.55;3.00;;;21.80;99.90;;;;;;5068812;28;20208;-69
2022/08/25 00:16:21;;;;;;;3.80;2.83;;;21.80;99.90;;;;;;5067534;28;20279;-68
2022/08/25 00:18:51;;;;;;;4.75;2.50;;;21.80;99.90;;;;;;5067572;28;20206;-69
2022/08/25 00:21:18;;;;;;;4.60;2.90;;;21.80;99.90;;;;;;5066143;28;20202;-69
2022/08/25 00:23:45;;;;;;;2.80;2.50;;;21.70;99.90;;;;;;5066845;28;20255;-69
2022/08/25 00:26:13;;;;;;;4.40;2.70;;;21.70;99.90;;;;;;5051267;28;20207;-69
2022/08/25 00:28:40;;;;;;;3.80;3.13;;;21.70;99.90;;;;;;5064107;28;20546;-69
2022/08/25 00:31:11;;;;;;;8.52;5.15;;;21.80;99.90;;;;;;5069251;28;20190;-70
2022/08/25 00:33:38;;;;;;;10.25;5.45;;;21.80;99.90;;;;;;5068006;28;20285;-70
2022/08/25 00:36:05;;;;;;;9.57;5.05;;;21.80;99.90;;;;;;5068325;28;20535;-69
2022/08/25 00:38:32;;;;;;;6.88;4.28;;;21.80;99.90;;;;;;5064074;28;20199;-69
2022/08/25 00:41:04;;;;;;;6.53;3.58;;;21.90;99.90;;;;;;5066633;28;20194;-68
2022/08/25 00:43:40;;;;;;;6.63;3.15;;;21.90;99.90;;;;;;5065602;28;20244;-68
2022/08/25 00:46:08;;;;;;;3.10;2.80;;;21.90;99.90;;;;;;5060544;28;20685;-69
2022/08/25 00:48:37;;;;;;;4.45;2.88;;;22.00;99.90;;;;;;5065451;28;20198;-68
2022/08/25 00:51:08;;;;;;;4.32;3.40;;;22.10;99.90;;;;;;5067189;28;20567;-70
2022/08/25 00:53:35;;;;;;;3.70;2.85;;;22.00;99.90;;;;;;5066818;28;20202;-68
2022/08/25 00:56:02;;;;;;;5.85;2.83;;;22.00;99.90;;;;;;5049806;28;20693;-69
2022/08/25 00:58:31;;;;;;;3.15;2.83;;;21.90;99.90;;;;;;5065204;28;20198;-70
2022/08/25 01:00:58;;;;;;;5.78;2.92;;;21.90;99.90;;;;;;5067590;28;20217;-69
2022/08/25 01:03:27;;;;;;;3.42;3.00;;;21.90;99.90;;;;;;5051267;28;20222;-69
2022/08/25 01:06:03;;;;;;;3.70;3.08;;;21.90;99.90;;;;;;5059404;28;20218;-69
2022/08/25 01:08:31;;;;;;;3.70;3.10;;;22.00;99.90;;;;;;5060626;28;20191;-70
2022/08/25 01:11:02;;;;;;;3.17;2.80;;;21.90;99.90;;;;;;5067733;28;20670;-70
2022/08/25 01:13:34;;;;;;;3.65;3.05;;;21.90;99.90;;;;;;5069122;28;20198;-69
2022/08/25 01:16:01;;;;;;;6.05;3.00;;;21.90;99.90;;;;;;5058643;28;20648;-69
2022/08/25 01:18:40;;;;;;;4.07;3.13;;;21.90;99.90;;;;;;5062611;28;20209;-70
2022/08/25 01:21:07;;;;;;;3.92;3.03;;;22.10;99.90;;;;;;5060618;28;20194;-69
2022/08/25 01:23:33;;;;;;;5.63;3.03;;;22.00;99.90;;;;;;5059045;28;20599;-69
2022/08/25 01:26:14;;;;;;;4.60;3.20;;;22.00;99.90;;;;;;5066830;28;20217;-69
2022/08/25 01:29:19;;;;;;;6.03;3.15;;;21.90;99.90;;;;;;5064816;28;20198;-69
2022/08/25 01:31:31;;;;;;;4.03;3.13;;;21.90;99.90;;;;;;5066147;28;20248;-69
2022/08/25 01:33:58;;;;;;;2.97;2.63;;;21.80;99.90;;;;;;5072039;28;20226;-69
2022/08/25 01:36:27;;;;;;;4.18;2.75;;;21.90;99.90;;;;;;5050388;28;20225;-69
2022/08/25 01:38:54;;;;;;;3.22;2.90;;;21.80;99.90;;;;;;5061018;28;20199;-69
2022/08/25 01:41:32;;;;;;;4.05;2.80;;;21.80;99.90;;;;;;5064046;28;20290;-69
2022/08/25 01:44:07;;;;;;;3.63;3.03;;;21.70;99.90;;;;;;5062342;28;20270;-69
2022/08/25 01:46:43;;;;;;;3.90;3.10;;;21.50;99.90;;;;;;5057577;28;20217;-68
2022/08/25 01:49:09;;;;;;;3.67;2.85;;;21.30;99.90;;;;;;5067686;28;20193;-69
2022/08/25 01:51:47;;;;;;;3.55;3.20;;;21.20;99.90;;;;;;5065969;28;20575;-68
2022/08/25 01:54:14;;;;;;;2.93;2.60;;;21.10;99.90;;;;;;5060371;28;20198;-69
2022/08/25 01:56:41;;;;;;;3.35;2.92;;;21.00;99.90;;;;;;5068375;28;20218;-69
2022/08/25 01:59:08;;;;;;;4.83;3.30;;;21.10;99.90;;;;;;5068219;28;20203;-68
2022/08/25 02:01:34;;;;;;;3.88;3.20;;;21.10;99.90;;;;;;5071253;28;20199;-68
2022/08/25 02:04:02;;;;;;;6.77;3.47;;;21.00;99.90;;;;;;5067367;28;20705;-69
2022/08/25 02:06:31;;;;;;;5.90;3.17;;;21.00;99.90;;;;;;5066692;28;20218;-69
2022/08/25 02:09:04;;;;;;;4.03;2.80;;;20.90;99.90;;;;;;5070210;28;20276;-69
2022/08/25 02:11:31;;;;;;;6.93;2.90;;;20.90;99.90;;;;;;5069096;28;20259;-69
2022/08/25 02:13:58;;;;;;;6.17;3.07;;;20.80;99.90;;;;;;5059441;28;20202;-69
2022/08/25 02:16:29;;;;;;;5.63;3.10;;;20.60;99.90;;;;;;5068729;28;20701;-68
2022/08/25 02:18:57;;;;;;;3.40;3.03;;;20.50;99.90;;;;;;5071351;28;20259;-70
2022/08/25 02:21:24;;;;;;;3.47;2.87;;;20.40;99.90;;;;;;5064262;28;20851;-68
2022/08/25 02:23:52;;;;;;;3.23;2.90;;;20.30;99.90;;;;;;5068156;28;20301;-69
2022/08/25 02:26:18;;;;;;;3.60;3.00;;;20.20;99.90;;;;;;5071186;28;20226;-69
2022/08/25 02:28:46;;;;;;;4.03;3.63;;;20.10;99.90;;;;;;5061322;28;20682;-69
2022/08/25 02:31:14;;;;;;;3.20;2.90;;;20.10;99.90;;;;;;5071402;28;20197;-69
2022/08/25 02:33:41;;;;;;;3.73;3.20;;;20.10;99.90;;;;;;5067160;28;20662;-69
2022/08/25 02:36:08;;;;;;;4.10;3.50;;;20.00;99.90;;;;;;5070929;28;20221;-70
2022/08/25 02:38:35;;;;;;;4.83;3.27;;;19.90;99.90;;;;;;5065180;28;20263;-69
2022/08/25 02:41:11;;;;;;;4.87;2.87;;;19.80;99.90;;;;;;5063075;28;20660;-69
2022/08/25 02:43:40;;;;;;;3.93;3.20;;;19.80;99.90;;;;;;5051171;28;20218;-69
2022/08/25 02:46:08;;;;;;;7.97;3.60;;;19.80;99.90;;;;;;5063080;28;20702;-66
2022/08/25 02:48:35;;;;;;;3.43;2.97;;;19.70;99.90;;;;;;5065555;28;20221;-69
2022/08/25 02:51:04;;;;;;;4.63;3.20;;;19.80;99.90;;;;;;5068405;28;20190;-69
2022/08/25 02:53:32;;;;;;;4.40;3.30;;;19.80;99.90;;;;;;5064526;28;20222;-69
2022/08/25 02:55:59;;;;;;;7.30;3.60;;;19.90;99.90;;;;;;5061636;28;20221;-69
2022/08/25 02:58:27;;;;;;;5.97;3.10;;;19.80;99.90;;;;;;5070521;28;20198;-68
2022/08/25 03:00:55;;;;;;;5.60;3.17;;;19.80;99.90;;;;;;5070450;28;20232;-68
2022/08/25 03:03:22;;;;;;;5.23;3.60;;;19.70;99.90;;;;;;5069255;28;20248;-69
2022/08/25 03:05:48;;;;;;;6.47;3.90;;;19.60;99.90;;;;;;5063443;28;20211;-69
2022/08/25 03:08:15;;;;;;;5.43;3.77;;;19.60;99.90;;;;;;5068918;28;20259;-68
2022/08/25 03:10:42;;;;;;;5.37;3.77;;;19.70;99.90;;;;;;5069617;28;20197;-67
2022/08/25 03:13:09;;;;;;;4.80;3.20;;;19.70;99.90;;;;;;5068149;28;20205;-69
2022/08/25 03:15:36;;;;;;;6.03;3.33;;;19.70;99.90;;;;;;5067614;28;20201;-68
2022/08/25 03:18:04;;;;;;;4.87;3.50;;;19.70;99.90;;;;;;5059650;28;20655;-70
2022/08/25 03:20:34;;;;;;;6.80;3.77;;;19.60;99.90;;;;;;5069878;28;20293;-67
2022/08/25 03:23:02;;;;;;;5.47;3.97;;;19.50;99.90;;;;;;5066619;28;20293;-69
2022/08/25 03:28:14;;;;;;;4.70;3.67;;;19.50;99.90;;;;;;5066663;28;20194;-69
2022/08/25 03:30:41;;;;;;;6.00;4.10;;;19.50;99.90;;;;;;5067442;28;20190;-69
2022/08/25 03:33:08;;;;;;;6.10;4.00;;;19.40;99.90;;;;;;5068876;28;20646;-69
2022/08/25 03:35:35;;;;;;;5.37;4.20;;;19.40;99.90;;;;;;5069821;28;20720;-69
2022/08/25 03:38:02;;;;;;;7.03;4.40;;;19.40;99.90;;;;;;5065203;28;20195;-68
2022/08/25 03:40:29;;;;;;;5.50;3.93;;;19.50;99.90;;;;;;5063698;28;20197;-69
2022/08/25 03:42:56;;;;;;;5.20;4.10;;;19.50;99.90;;;;;;5067124;28;20197;-68
2022/08/25 03:45:24;;;;;;;6.10;4.27;;;19.50;99.90;;;;;;5068484;28;20617;-69
2022/08/25 03:47:52;;;;;;;6.57;4.10;;;19.40;99.90;;;;;;5049891;28;20225;-69
2022/08/25 03:50:20;;;;;;;5.60;3.97;;;19.40;99.90;;;;;;5053905;28;20195;-69
2022/08/25 03:52:55;;;;;;;4.97;4.20;;;19.40;99.90;;;;;;5066396;28;20579;-69
2022/08/25 03:55:23;;;;;;;4.87;3.97;;;19.30;99.90;;;;;;5067058;28;20268;-69
2022/08/25 03:57:51;;;;;;;8.33;3.77;;;19.30;99.90;;;;;;5058570;28;20687;-68
2022/08/25 04:00:19;;;;;;;5.33;4.00;;;19.30;99.90;;;;;;5068039;28;20198;-69
2022/08/25 04:02:46;;;;;;;4.57;3.67;;;19.40;99.90;;;;;;5064533;28;20654;-68
2022/08/25 04:05:13;;;;;;;4.70;3.63;;;19.40;99.90;;;;;;5066817;28;20257;-69
2022/08/25 04:07:41;;;;;;;6.43;4.20;;;19.40;99.90;;;;;;5064444;28;20218;-69
2022/08/25 04:10:09;;;;;;;7.07;4.70;;;19.40;99.90;;;;;;5068845;28;20224;-69
2022/08/25 04:12:36;;;;;;;5.83;4.40;;;19.50;99.90;;;;;;5060730;28;20199;-67
2022/08/25 04:15:05;;;;;;;5.67;4.70;;;19.50;99.90;;;;;;5063484;28;20693;-69
2022/08/25 04:17:32;;;;;;;7.37;4.30;;;19.60;99.90;;;;;;5066264;28;20234;-69
2022/08/25 04:20:00;;;;;;;8.77;4.27;;;19.70;99.90;;;;;;5069042;28;20214;-68
2022/08/25 04:22:27;;;;;;;7.13;4.43;;;19.80;99.90;;;;;;5064018;28;20203;-68
2022/08/25 04:24:56;;;;;;;5.67;4.70;;;19.80;99.90;;;;;;5067006;28;20709;-69
2022/08/25 04:27:23;;;;;;;6.67;4.67;;;19.70;99.90;;;;;;5063267;28;20221;-68
2022/08/25 04:29:50;;;;;;;7.43;4.40;;;19.60;99.90;;;;;;5069331;28;20489;-68
2022/08/25 04:32:16;;;;;;;8.33;4.50;;;19.50;99.90;;;;;;5055868;28;20195;-69
2022/08/25 04:34:43;;;;;;;6.73;4.63;;;19.40;99.90;;;;;;5059856;28;20198;-69
2022/08/25 04:37:10;;;;;;;6.33;4.17;;;19.40;99.90;;;;;;5050867;28;20217;-69
2022/08/25 04:39:37;;;;;;;5.93;4.20;;;19.30;99.90;;;;;;5064607;28;20654;-69
2022/08/25 04:42:03;;;;;;;5.50;4.60;;;19.20;99.90;;;;;;5063108;28;20571;-69
2022/08/25 04:44:30;;;;;;;6.20;4.67;;;19.10;99.90;;;;;;5066200;28;20276;-69
2022/08/25 04:46:58;;;;;;;8.80;5.17;;;19.00;99.90;;;;;;5065769;28;20215;-68
2022/08/25 04:49:25;;;;;;;6.40;4.70;;;18.90;99.90;;;;;;5067139;28;20205;-68
2022/08/25 04:51:52;;;;;;;8.70;4.83;;;19.00;99.90;;;;;;5063047;28;20197;-69
2022/08/25 04:54:20;;;;;;;7.30;5.50;;;19.10;99.90;;;;;;5064537;28;20198;-69
2022/08/25 04:56:49;;;;;;;6.43;4.60;;;19.20;99.90;;;;;;5067030;28;20225;-69
2022/08/25 04:59:19;;;;;;;6.23;4.70;;;19.10;99.90;;;;;;5059742;28;20199;-69
2022/08/25 05:01:46;;;;;;;11.30;5.13;;;19.10;99.90;;;;;;5068769;28;20202;-69
2022/08/25 05:04:20;;;;;;;9.70;5.50;;;19.20;99.90;;;;;;5057076;28;20213;-69
2022/08/25 05:06:55;;;;;;;7.10;4.70;;;19.40;99.90;;;;;;5059523;28;20214;-67
2022/08/25 05:09:22;;;;;;;12.80;5.20;;;19.40;99.90;;;;;;5066797;28;20186;-70
2022/08/25 05:11:50;;;;;;;7.53;4.77;;;19.40;99.90;;;;;;5065032;28;20194;-68
2022/08/25 05:14:21;;;;;;;8.97;5.63;;;19.60;99.90;;;;;;5071057;28;20620;-69
2022/08/25 05:16:51;;;;;;;12.40;5.90;;;19.70;99.90;;;;;;5069996;28;20229;-69
2022/08/25 05:19:18;;;;;;;13.17;6.50;;;19.80;99.90;;;;;;5064715;28;20212;-69
2022/08/25 05:21:44;;;;;;;13.57;6.80;;;19.90;99.90;;;;;;5068692;28;20205;-70
2022/08/25 05:24:11;;;;;;;19.27;7.10;;;19.90;99.90;;;;;;5072261;28;20225;-69
2022/08/25 05:26:38;;;;;;;9.23;5.60;;;20.00;99.90;;;;;;5069755;28;20705;-69
2022/08/25 05:29:05;;;;;;;8.30;4.87;;;19.90;99.90;;;;;;5061850;28;20199;-68
2022/08/25 05:31:32;;;;;;;9.30;5.37;;;19.90;99.90;;;;;;5055762;28;20985;-69
2022/08/25 05:34:08;;;;;;;8.97;5.13;;;19.90;99.90;;;;;;5059453;28;20198;-69
2022/08/25 05:36:34;;;;;;;10.30;5.50;;;19.90;99.90;;;;;;5066541;28;20267;-68
2022/08/25 05:39:03;;;;;;;11.13;6.13;;;20.00;99.90;;;;;;5064015;28;20206;-68
2022/08/25 05:41:30;;;;;;;8.30;5.30;;;20.20;99.90;;;;;;5068288;28;20209;-69
2022/08/25 05:43:57;;;;;;;8.13;5.33;;;20.30;99.90;;;;;;5067757;28;20614;-71
2022/08/25 05:46:24;;;;;;;8.07;5.20;;;20.30;99.90;;;;;;5066694;28;20221;-69
2022/08/25 05:48:52;;;;;;;9.87;5.27;;;20.30;99.90;;;;;;5063177;28;20194;-68
2022/08/25 05:51:19;;;;;;;5.83;4.70;;;20.30;99.90;;;;;;5064770;28;20190;-69
2022/08/25 05:53:48;;;;;;;8.87;5.47;;;20.40;99.90;;;;;;5070284;28;20186;-69
2022/08/25 05:56:15;;;;;;;6.77;4.70;;;20.40;99.90;;;;;;5065755;28;20435;-68
2022/08/25 05:58:43;;;;;;;7.33;5.10;;;20.50;99.90;;;;;;5067787;28;20810;-69
2022/08/25 06:04:04;;;;;;;7.63;4.82;;;20.70;99.90;;;;;;5068917;28;20227;-70
2022/08/25 06:06:31;;;;;;;10.07;5.00;;;20.80;99.90;;;;;;5066954;28;22399;-69
2022/08/25 06:08:57;;;;;;;7.97;5.07;;;20.90;99.90;;;;;;5057803;28;20432;-71
2022/08/25 06:11:24;;;;;;;6.72;4.78;;;21.00;99.90;;;;;;5059717;28;20264;-70
2022/08/25 06:13:51;;;;;;;11.77;5.25;;;21.20;99.90;;;;;;5059955;28;20197;-70
2022/08/25 06:16:17;;;;;;;11.20;6.03;;;21.20;99.90;;;;;;5062698;28;20218;-70
2022/08/25 06:18:44;;;;;;;8.68;5.60;;;21.30;99.90;;;;;;5048637;28;20467;-69
2022/08/25 06:21:13;;;;;;;9.27;5.80;;;21.40;99.90;;;;;;5063647;28;20213;-69
2022/08/25 06:23:40;;;;;;;11.27;5.88;;;21.50;99.90;;;;;;5065625;28;20194;-70
2022/08/25 06:26:12;;;;;;;12.05;6.80;;;21.70;99.90;;;;;;5069164;28;20210;-67
2022/08/25 06:28:47;;;;;;;12.50;6.43;;;21.90;99.90;;;;;;5065115;28;20281;-71
2022/08/25 06:31:14;;;;;;;11.45;6.32;;;22.10;99.90;;;;;;5066758;28;20259;-71
2022/08/25 06:33:41;;;;;;;22.60;7.07;;;22.20;99.90;;;;;;5068478;28;20210;-71
2022/08/25 06:36:08;;;;;;;17.20;7.63;;;22.40;99.90;;;;;;5065914;28;20589;-69
2022/08/25 06:38:35;;;;;;;17.05;7.45;;;22.50;99.90;;;;;;5065212;28;20198;-70
2022/08/25 06:41:06;;;;;;;19.13;6.80;;;22.70;99.90;;;;;;5064176;28;20280;-71
2022/08/25 06:43:34;;;;;;;16.77;6.78;;;22.90;99.90;;;;;;5048029;28;20268;-76
2022/08/25 06:46:16;;;;;;;12.73;6.85;;;23.00;99.90;;;;;;5060915;28;20779;-75
2022/08/25 06:48:43;;;;;;;14.98;7.03;;;23.20;99.90;;;;;;5052691;28;20191;-74
2022/08/25 06:51:13;;;;;;;13.00;6.45;;;23.40;99.90;;;;;;5064597;28;20198;-75
2022/08/25 06:53:41;;;;;;;19.60;7.18;;;23.40;99.90;;;;;;5059436;28;20197;-75
2022/08/25 06:56:08;;;;;;;9.80;6.45;;;23.60;99.90;;;;;;5065428;28;20218;-73
2022/08/25 06:58:35;;;;;;;10.27;6.57;;;23.80;99.90;;;;;;5064740;28;20204;-77
2022/08/25 07:01:18;;;;;;;11.57;6.03;;;23.90;99.90;;;;;;5047836;28;20195;-75
2022/08/25 07:03:46;;;;;;;11.48;6.40;;;23.90;99.90;;;;;;5066843;28;20248;-74
2022/08/25 07:06:14;;;;;;;9.18;6.53;;;24.10;99.90;;;;;;5061736;28;20332;-73
2022/08/25 07:08:45;;;;;;;12.77;6.97;;;24.10;99.90;;;;;;5045710;28;20194;-73
2022/08/25 07:11:13;;;;;;;9.82;6.50;;;24.20;99.90;;;;;;5064615;28;20267;-73
2022/08/25 07:13:43;;;;;;;9.88;6.97;;;24.30;99.90;;;;;;5051504;28;20199;-73
2022/08/25 07:16:10;;;;;;;11.70;6.75;;;24.50;99.90;;;;;;5066286;28;20221;-71
2022/08/25 07:18:37;;;;;;;10.07;6.07;;;24.80;99.90;;;;;;5066996;28;20282;-72
2022/08/25 07:21:04;;;;;;;14.95;6.57;;;25.20;99.90;;;;;;5069365;28;20194;-74
2022/08/25 07:23:35;;;;;;;12.15;6.50;;;25.60;99.90;;;;;;5067717;28;20233;-74
2022/08/25 07:26:14;;;;;;;10.02;5.90;;;25.70;99.90;;;;;;5061256;28;20276;-73
2022/08/25 07:29:13;;;;;;;14.07;6.43;;;25.80;99.90;;;;;;5063004;28;20640;-71
2022/08/25 07:31:40;;;;;;;15.63;6.85;;;25.90;99.90;;;;;;5064028;28;20693;-73
2022/08/25 07:36:55;;;;;;;9.18;6.20;;;26.30;99.90;;;;;;5061082;28;20214;-74
2022/08/25 07:39:23;;;;;;;9.63;5.85;;;26.40;99.90;;;;;;5061659;28;20194;-72
2022/08/25 07:41:50;;;;;;;9.07;6.45;;;26.30;99.90;;;;;;5056893;28;20274;-73
2022/08/25 07:44:19;;;;;;;10.43;6.15;;;26.20;99.90;;;;;;5062286;28;20303;-73
2022/08/25 07:46:45;;;;;;;11.95;7.07;;;26.30;99.90;;;;;;5057481;28;20217;-72
2022/08/25 07:49:12;;;;;;;7.63;5.95;;;26.40;99.90;;;;;;5060076;28;20186;-73
2022/08/25 07:51:43;;;;;;;8.20;6.50;;;26.60;99.90;;;;;;5065009;28;20248;-72
2022/08/25 07:54:30;;;;;;;8.73;6.32;;;26.70;99.90;;;;;;5061938;28;20264;-74
2022/08/25 07:57:02;;;;;;;9.18;6.38;;;26.90;99.90;;;;;;5057837;28;20218;-73
2022/08/25 07:59:29;;;;;;;8.40;6.43;;;26.90;99.90;;;;;;5067346;28;20230;-73
2022/08/25 08:02:04;;;;;;;11.35;7.10;;;26.90;99.90;;;;;;5067458;28;20194;-73
2022/08/25 08:04:31;;;;;;;11.30;7.45;;;27.00;99.90;;;;;;5067482;28;20264;-71
2022/08/25 08:06:57;;;;;;;7.80;6.60;;;27.00;99.90;;;;;;5064291;28;20214;-71
2022/08/25 08:09:25;;;;;;;11.20;6.70;;;27.20;99.90;;;;;;5062603;28;20213;-72
2022/08/25 08:11:52;;;;;;;9.57;6.78;;;27.30;99.90;;;;;;5067760;28;20731;-74
2022/08/25 08:14:20;;;;;;;10.63;6.82;;;27.30;99.90;;;;;;5062986;28;20638;-73
2022/08/25 08:16:46;;;;;;;9.15;6.00;;;27.40;99.90;;;;;;5065421;28;20218;-73
2022/08/25 08:19:13;;;;;;;9.00;6.00;;;27.40;99.90;;;;;;5054031;28;20187;-73
2022/08/25 08:21:40;;;;;;;9.73;6.35;;;27.30;99.90;;;;;;5062038;28;20570;-72
2022/08/25 08:24:07;;;;;;;9.23;6.60;;;27.20;99.90;;;;;;5044714;28;20199;-74
2022/08/25 08:26:54;;;;;;;11.95;6.68;;;27.30;99.90;;;;;;5067533;28;20263;-74
2022/08/25 08:29:25;;;;;;;11.35;6.00;;;27.30;99.90;;;;;;5070138;28;20278;-74
2022/08/25 08:31:52;;;;;;;8.95;6.15;;;27.50;99.90;;;;;;5063972;28;20190;-73
2022/08/25 08:34:19;;;;;;;11.30;6.28;;;27.60;99.90;;;;;;5067680;28;20492;-73
2022/08/25 08:36:51;;;;;;;20.00;5.68;;;27.70;99.90;;;;;;5044784;28;20721;-73
2022/08/25 08:39:17;;;;;;;8.68;6.03;;;27.80;99.90;;;;;;5056640;28;20351;-73
2022/08/25 08:44:44;;;;;;;7.35;5.82;;;27.80;99.90;;;;;;5056848;28;20233;-72
2022/08/25 08:47:17;;;;;;;13.73;5.68;;;28.00;99.90;;;;;;5054776;28;20717;-73
2022/08/25 08:49:52;;;;;;;11.75;5.05;;;28.30;99.90;;;;;;5058272;28;20221;-73
2022/08/25 08:52:23;;;;;;;9.77;5.75;;;28.40;99.90;;;;;;5042205;28;20545;-72
2022/08/25 08:54:59;;;;;;;7.30;4.88;;;28.40;99.90;;;;;;5054836;28;20207;-73
2022/08/25 08:57:27;;;;;;;9.68;5.53;;;28.50;99.90;;;;;;5056891;28;20225;-72
2022/08/25 09:00:00;;;;;;;10.10;6.18;;;28.60;99.90;;;;;;5040439;28;20285;-73
2022/08/25 09:02:56;;;;;;;7.95;5.78;;;28.70;99.90;;;;;;5055174;28;20205;-73
2022/08/25 09:05:27;;;;;;;17.52;6.20;;;28.50;99.90;;;;;;5057754;28;20218;-73
2022/08/25 09:07:58;;;;;;;11.15;5.60;;;28.60;99.90;;;;;;5061837;28;20580;-70
2022/08/25 09:10:34;;;;;;;8.70;6.15;;;28.60;99.90;;;;;;5047933;28;20251;-72
2022/08/25 09:13:17;;;;;;;12.98;6.03;;;28.50;99.90;;;;;;5063957;28;20194;-72
2022/08/25 09:19:14;;;;;;;12.98;6.20;;;28.70;99.90;;;;;;5065458;28;20455;-73
2022/08/25 09:22:14;;;;;;;10.98;6.43;;;28.90;99.90;;;;;;5057301;28;20198;-73
2022/08/25 09:25:19;;;;;;;9.55;5.85;;;29.00;99.90;;;;;;5057107;28;20207;-73
2022/08/25 09:28:17;;;;;;;8.32;5.50;;;29.10;99.90;;;;;;5049250;28;20199;-73
2022/08/25 09:30:52;;;;;;;9.35;5.45;;;28.90;99.90;;;;;;5048010;28;20206;-73
2022/08/25 09:33:21;;;;;;;7.60;5.55;;;28.70;99.90;;;;;;5062370;28;20301;-74
2022/08/25 09:35:50;;;;;;;7.22;5.82;;;28.70;99.90;;;;;;5061996;28;20570;-73
2022/08/25 09:38:19;;;;;;;8.45;5.68;;;28.80;99.90;;;;;;5063408;28;20198;-73
2022/08/25 09:40:50;;;;;;;12.23;6.05;;;29.00;99.90;;;;;;5067500;28;20225;-72
2022/08/25 09:43:27;;;;;;;10.05;5.57;;;29.10;99.90;;;;;;5045303;28;20194;-72
2022/08/25 09:45:58;;;;;;;7.40;5.53;;;29.10;99.90;;;;;;5050003;28;20279;-73
2022/08/25 09:48:45;;;;;;;9.70;6.03;;;29.10;99.90;;;;;;5067025;28;20191;-71
2022/08/25 09:51:25;;;;;;;13.20;6.07;;;28.80;99.90;;;;;;5064581;28;20278;-74
2022/08/25 09:54:04;;;;;;;7.32;5.53;;;28.70;99.90;;;;;;5061258;28;20191;-73
2022/08/25 09:56:54;;;;;;;6.65;5.72;;;28.70;99.90;;;;;;5062988;28;20710;-73
2022/08/25 09:59:32;;;;;;;8.38;5.53;;;29.00;99.90;;;;;;5065345;28;20201;-73
2022/08/25 10:02:19;;;;;;;10.20;5.85;;;29.00;99.90;;;;;;5052099;28;20201;-72
2022/08/25 10:04:46;;;;;;;7.55;5.72;;;29.30;99.90;;;;;;5068159;28;20201;-72
2022/08/25 10:07:26;;;;;;;8.63;5.40;;;29.30;99.90;;;;;;5070910;28;20296;-72
2022/08/25 10:09:58;;;;;;;9.02;5.40;;;29.60;99.90;;;;;;5068217;28;20194;-72
2022/08/25 10:12:39;;;;;;;10.27;6.00;;;29.70;99.90;;;;;;5072141;28;20205;-73
2022/08/25 10:15:36;;;;;;;8.23;5.45;;;29.90;99.90;;;;;;5067377;28;20267;-72
2022/08/25 10:18:27;;;;;;;8.65;5.80;;;30.10;99.90;;;;;;5066830;28;20259;-72
2022/08/25 10:21:01;;;;;;;11.90;6.00;;;30.20;99.90;;;;;;5064084;28;20197;-73
2022/08/25 10:23:30;;;;;;;9.63;5.80;;;30.00;99.90;;;;;;5062615;28;20599;-73
2022/08/25 10:26:04;;;;;;;9.43;6.20;;;29.90;99.90;;;;;;5069632;28;20219;-72
2022/08/25 10:29:10;;;;;;;10.07;6.43;;;30.00;99.90;;;;;;5066759;28;20286;-73
2022/08/25 10:31:50;;;;;;;12.15;6.25;;;30.10;99.90;;;;;;5050109;28;20198;-72
2022/08/25 10:34:43;;;;;;;12.20;7.05;;;30.30;99.90;;;;;;5068580;28;20198;-73
2022/08/25 10:37:29;;;;;;;12.20;6.68;;;30.50;99.90;;;;;;5062997;28;20214;-71
2022/08/25 10:40:26;;;;;;;7.53;5.82;;;30.40;99.90;;;;;;5060891;28;20198;-72
2022/08/25 10:43:05;;;;;;;7.63;6.07;;;30.50;99.90;;;;;;5066857;28;20657;-72
2022/08/25 10:45:59;;;;;;;6.85;5.80;;;30.60;99.90;;;;;;5056466;28;20214;-73
2022/08/25 10:48:42;;;;;;;7.13;5.47;;;30.90;99.90;;;;;;5064092;28;20199;-72
2022/08/25 10:51:30;;;;;;;8.98;5.50;;;31.20;99.90;;;;;;5067897;28;20607;-72
2022/08/25 10:54:05;;;;;;;8.40;5.43;;;31.50;99.90;;;;;;5070950;28;20662;-73
2022/08/25 10:56:34;;;;;;;7.35;5.85;;;31.70;99.90;;;;;;5062630;28;20296;-72
2022/08/25 10:59:24;;;;;;;7.40;5.70;;;31.70;99.90;;;;;;5057840;28;20203;-71
2022/08/25 11:02:22;;;;;;;9.18;5.45;;;31.70;99.90;;;;;;5051680;28;20689;-73
2022/08/25 11:05:02;;;;;;;7.97;5.25;;;31.90;99.90;;;;;;5053645;28;20194;-72
2022/08/25 11:07:38;;;;;;;9.18;5.72;;;32.30;99.90;;;;;;5056862;28;20222;-74
2022/08/25 11:10:15;;;;;;;6.95;5.20;;;32.50;99.90;;;;;;5035818;28;20191;-73
2022/08/25 11:12:46;;;;;;;7.63;5.10;;;33.00;99.90;;;;;;5052452;28;20301;-73
2022/08/25 11:15:41;;;;;;;8.63;5.10;;;33.10;99.90;;;;;;5057462;28;20230;-72
2022/08/25 11:18:30;;;;;;;6.65;5.07;;;32.90;99.90;;;;;;5056507;28;20211;-72
2022/08/25 11:21:08;;;;;;;5.93;4.80;;;32.70;99.90;;;;;;5053272;28;20205;-72
2022/08/25 11:23:54;;;;;;;5.93;4.88;;;32.80;99.70;;;;;;5057976;28;20217;-73
2022/08/25 11:26:32;;;;;;;7.82;4.65;;;33.00;99.30;;;;;;5057061;28;20646;-73
2022/08/25 11:29:15;;;;;;;7.93;5.28;;;33.00;99.10;;;;;;5056195;28;20365;-73
2022/08/25 11:31:47;;;;;;;8.07;4.90;;;33.10;99.20;;;;;;5057475;28;20600;-73
2022/08/25 11:34:20;;;;;;;7.57;4.85;;;33.20;98.90;;;;;;5054365;28;20195;-73
2022/08/25 11:37:24;;;;;;;10.60;5.35;;;33.30;99.20;;;;;;5054651;28;20214;-72
2022/08/25 11:40:12;;;;;;;6.82;4.90;;;33.40;98.20;;;;;;5040790;28;20243;-74
2022/08/25 11:42:51;;;;;;;8.02;4.78;;;33.70;98.50;;;;;;5055091;28;20205;-73
2022/08/25 11:45:43;;;;;;;5.70;4.70;;;33.90;98.50;;;;;;5057654;28;20194;-72
2022/08/25 11:48:49;;;;;;;8.73;5.13;;;34.20;97.90;;;;;;5058430;28;20190;-72
2022/08/25 11:51:33;;;;;;;5.25;4.63;;;34.20;97.60;;;;;;5055636;28;20576;-73
2022/08/25 11:54:33;;;;;;;10.88;5.38;;;34.20;97.40;;;;;;5056248;28;20201;-72
2022/08/25 11:57:05;;;;;;;6.00;5.05;;;33.90;97.50;;;;;;5066887;28;20248;-74
2022/08/25 11:59:51;;;;;;;7.55;5.13;;;33.50;97.60;;;;;;5069247;28;20205;-73
2022/08/25 12:02:44;;;;;;;7.28;5.32;;;33.00;98.40;;;;;;5056388;28;20574;-72
2022/08/25 12:05:33;;;;;;;7.30;5.65;;;33.00;98.70;;;;;;5046704;28;20285;-73
2022/08/25 12:10:55;;;;;;;10.57;5.63;;;32.60;98.90;;;;;;5064139;28;20706;-72
2022/08/25 12:13:47;;;;;;;8.38;5.88;;;32.40;99.00;;;;;;5067995;28;20197;-71
2022/08/25 12:16:34;;;;;;;8.93;5.47;;;32.20;98.80;;;;;;5064253;28;20297;-72
2022/08/25 12:19:28;;;;;;;8.50;5.30;;;32.00;99.70;;;;;;5063774;28;20190;-72
2022/08/25 12:22:21;;;;;;;9.10;5.03;;;31.70;99.20;;;;;;5063633;28;20201;-72
2022/08/25 12:24:56;;;;;;;6.13;5.10;;;31.70;99.20;;;;;;5059627;28;20194;-73
2022/08/25 12:27:57;;;;;;;6.35;5.38;;;31.80;99.20;;;;;;5063380;28;20217;-72
2022/08/25 12:30:45;;;;;;;9.73;5.30;;;32.20;99.00;;;;;;5062363;28;20202;-72
2022/08/25 12:33:28;;;;;;;7.07;5.45;;;32.60;99.10;;;;;;5061917;28;20194;-72
2022/08/25 12:36:07;;;;;;;7.38;5.32;;;33.20;98.20;;;;;;5049699;28;20578;-73
2022/08/25 12:38:44;;;;;;;9.02;5.57;;;33.50;98.00;;;;;;5059827;28;20190;-73
2022/08/25 12:41:24;;;;;;;5.85;5.15;;;33.60;97.50;;;;;;5064745;28;20650;-73
2022/08/25 12:44:07;;;;;;;10.00;5.18;;;33.60;98.00;;;;;;5062216;28;20213;-72
2022/08/25 12:46:38;;;;;;;6.25;5.15;;;33.80;97.20;;;;;;5061927;28;20313;-73
2022/08/25 12:49:28;;;;;;;7.82;5.13;;;33.30;97.30;;;;;;5059558;28;20191;-72
2022/08/25 12:51:55;;;;;;;7.47;5.22;;;33.20;97.20;;;;;;5059300;28;20244;-73
2022/08/25 12:54:43;;;;;;;7.88;5.43;;;33.30;97.40;;;;;;5059843;28;20676;-72
2022/08/25 12:57:38;;;;;;;7.50;4.78;;;33.60;97.00;;;;;;5066523;28;20214;-73
2022/08/25 13:00:22;;;;;;;6.57;5.30;;;34.10;96.70;;;;;;5069458;28;20202;-72
2022/08/25 13:03:15;;;;;;;8.57;5.45;;;34.60;96.70;;;;;;5055208;28;20209;-72
2022/08/25 13:06:15;;;;;;;5.90;5.10;;;35.00;96.00;;;;;;5067737;28;20260;-73
2022/08/25 13:09:12;;;;;;;7.43;5.13;;;35.10;95.50;;;;;;5017138;28;20194;-70
2022/08/25 13:11:48;;;;;;;7.78;5.05;;;35.00;95.60;;;;;;5062523;28;20190;-69
2022/08/25 13:14:24;;;;;;;5.80;5.13;;;34.90;95.50;;;;;;5070031;28;20193;-70
2022/08/25 13:16:55;;;;;;;6.68;5.30;;;34.80;95.60;;;;;;5061049;28;20324;-71
2022/08/25 13:19:23;;;;;;;10.65;5.32;;;34.70;95.90;;;;;;5060959;28;20202;-69
2022/08/25 13:21:50;;;;;;;7.07;5.10;;;34.50;95.80;;;;;;5058237;28;20194;-68
2022/08/25 13:24:33;;;;;;;5.80;4.97;;;34.40;96.00;;;;;;5061413;28;20555;-71
2022/08/25 13:27:16;;;;;;;5.53;4.63;;;34.40;95.60;;;;;;5057456;28;20268;-70
2022/08/25 13:29:59;;;;;;;6.22;5.10;;;34.50;95.30;;;;;;5062113;28;20281;-70
2022/08/25 13:32:35;;;;;;;6.13;4.88;;;34.50;94.90;;;;;;5061404;28;20198;-69
2022/08/25 13:35:13;;;;;;;5.78;5.00;;;34.70;95.20;;;;;;5064439;28;20210;-69